Sand Key, FL current weather conditions

sailwx.info

Wind from 110 at 19 knots gusting 20

Air temperature 26.2° C
Dewpoint 22.5° C

Last reported at 2017-Apr-29 18:50 UTC.
Time now 2017-Apr-29 19:36 UTC

Location: N 24°27' W 081°53'.
View on Google Maps.

See reports from other nearby stations

  
Tides and Currents Weather Stations Pressure Air Temp Water Temp Dewpoint Dewpoint Depression Visibility Wind Speed Wind Dir Waves Ship Positions
date/time (UTC)wind fromknots sea level pressurealtimeterstation pressurevisibilityair tempwater tempwave heightnotes
2017-Apr-29 18:50 110 19 gusting 20 26.2
2017-Apr-29 17:50 110 19 gusting 22 26.1
2017-Apr-29 16:50 130 18 gusting 20 26.4
2017-Apr-29 15:50 120 17 gusting 19 26.3
2017-Apr-29 14:50 130 18 gusting 20 26.3
2017-Apr-29 13:50 140 17 gusting 20 26.5
2017-Apr-29 12:50 130 17 gusting 20 26.1
2017-Apr-29 11:50 130 19 gusting 21 26.2
2017-Apr-29 10:50 130 18 gusting 21 26.1
2017-Apr-29 09:50 130 18 gusting 20 26.1
2017-Apr-29 08:50 140 18 gusting 20 26.1
2017-Apr-29 07:50 130 20 gusting 25 26.2
2017-Apr-29 06:50 130 19 gusting 20 26.0
2017-Apr-29 05:50 130 20 gusting 24 26.1
2017-Apr-29 04:50 130 20 gusting 25 26.1
2017-Apr-29 03:50 130 20 gusting 24 26.2
2017-Apr-29 02:50 120 19 gusting 21 26.1
2017-Apr-29 00:50 120 20 gusting 24 26.0
2017-Apr-28 23:50 110 21 gusting 25 26.0
2017-Apr-28 22:50 100 20 gusting 24 26.2
2017-Apr-28 21:50 100 20 gusting 24 26.2
2017-Apr-28 20:50 110 20 gusting 22 26.2
2017-Apr-28 19:50 110 17 gusting 20 26.3
2017-Apr-28 18:50 110 15 gusting 19 26.3
2017-Apr-28 17:50 110 13 gusting 15 26.3
2017-Apr-28 16:50 060 12 gusting 27 26.1
2017-Apr-28 15:50 120 13 gusting 15 26.2
2017-Apr-28 14:50 120 9 gusting 12 26.2
2017-Apr-28 13:50 140 6 gusting 8 26.2
2017-Apr-28 12:50 130 6 gusting 6 26.0
2017-Apr-28 11:50 160 8 gusting 11 25.8
2017-Apr-28 10:50 140 12 gusting 13 25.8
2017-Apr-28 09:50 130 9 gusting 11 25.9
2017-Apr-28 08:50 140 7 gusting 8 26.0
2017-Apr-28 07:50 140 8 gusting 9 26.0
2017-Apr-28 06:50 140 9 gusting 11 26.0
2017-Apr-28 05:50 140 12 gusting 13 26.1
2017-Apr-28 04:50 140 12 gusting 13 26.1
2017-Apr-28 03:50 140 12 gusting 13 26.1
2017-Apr-28 02:50 140 15 gusting 19 26.1
2017-Apr-28 01:50 140 14 gusting 18 26.2
2017-Apr-28 00:50 140 13 gusting 17 26.3
2017-Apr-27 23:50 130 15 gusting 18 26.3
2017-Apr-27 22:50 110 13 gusting 15 26.4
2017-Apr-27 21:50 100 13 gusting 13 26.3
2017-Apr-27 20:50 100 11 gusting 13 26.3
2017-Apr-27 19:50 100 6 gusting 7 26.3